createdAt,value
2022-09-14T00:00:23.698Z,14.10
2022-09-14T00:05:26.078Z,14.10
2022-09-14T00:10:28.661Z,14.10
2022-09-14T00:15:30.955Z,14.00
2022-09-14T00:20:33.898Z,14.10
2022-09-14T00:25:36.176Z,14.20
2022-09-14T00:30:42.263Z,14.10
2022-09-14T00:35:44.591Z,14.00
2022-09-14T00:40:57.171Z,14.00
2022-09-14T00:46:02.747Z,14.10
2022-09-14T00:51:05.239Z,14.00
2022-09-14T00:56:07.767Z,13.90
2022-09-14T01:01:10.426Z,13.90
2022-09-14T01:06:36.442Z,13.90
2022-09-14T01:11:51.926Z,14.00
2022-09-14T01:17:12.672Z,13.90
2022-09-14T01:22:21.190Z,14.00
2022-09-14T01:27:34.824Z,14.00
2022-09-14T01:32:43.102Z,14.10
2022-09-14T01:38:07.735Z,14.10
2022-09-14T01:43:15.171Z,14.00
2022-09-14T01:48:27.203Z,13.90
2022-09-14T01:53:43.739Z,13.80
2022-09-14T01:59:14.175Z,13.80
2022-09-14T02:04:26.318Z,13.90
2022-09-14T02:09:29.207Z,13.80
2022-09-14T02:14:31.907Z,13.70
2022-09-14T02:19:46.970Z,13.70
2022-09-14T02:24:50.929Z,13.70
2022-09-14T02:29:53.848Z,13.70
2022-09-14T02:35:23.523Z,13.70
2022-09-14T02:40:37.279Z,13.60
2022-09-14T02:46:03.119Z,13.60
2022-09-14T02:51:12.312Z,13.60
2022-09-14T02:56:16.822Z,13.60
2022-09-14T03:01:22.490Z,13.60
2022-09-14T03:06:24.938Z,13.60
2022-09-14T03:11:27.287Z,13.50
2022-09-14T03:16:29.894Z,13.40
2022-09-14T03:21:33.046Z,13.40
2022-09-14T03:26:38.247Z,13.40
2022-09-14T03:31:40.671Z,13.30
2022-09-14T03:36:43.030Z,13.20
2022-09-14T03:41:45.430Z,13.20
2022-09-14T03:46:47.880Z,13.20
2022-09-14T03:51:50.643Z,13.10
2022-09-14T03:56:54.012Z,13.00
2022-09-14T04:01:56.642Z,13.10
2022-09-14T04:06:59.094Z,13.00
2022-09-14T04:12:01.481Z,13.00
2022-09-14T04:17:04.363Z,13.00
2022-09-14T04:22:06.901Z,12.90
2022-09-14T04:27:09.272Z,12.90
2022-09-14T04:32:11.836Z,12.90
2022-09-14T04:37:14.260Z,12.90
2022-09-14T04:42:17.007Z,13.10
2022-09-14T05:05:09.109Z,12.90
2022-09-14T05:28:35.788Z,13.10
2022-09-14T06:13:51.266Z,13.80
2022-09-14T06:25:09.206Z,13.50
2022-09-14T06:30:17.499Z,13.80
2022-09-14T07:18:00.117Z,14.30
2022-09-14T07:36:43.640Z,14.40
2022-09-14T08:08:49.468Z,15.40
2022-09-14T08:14:13.029Z,15.40
2022-09-14T08:19:20.445Z,15.40
2022-09-14T08:24:22.793Z,15.20
2022-09-14T08:29:25.079Z,15.50
2022-09-14T08:34:27.514Z,15.60
2022-09-14T08:39:30.076Z,15.80
2022-09-14T08:44:41.708Z,16.10
2022-09-14T08:49:52.171Z,16.10
2022-09-14T08:54:58.785Z,16.10
2022-09-14T09:00:01.097Z,16.10
2022-09-14T09:05:22.009Z,16.40
2022-09-14T09:10:26.910Z,16.50
2022-09-14T09:15:39.206Z,16.60
2022-09-14T09:20:48.033Z,16.70
2022-09-14T09:25:53.356Z,17.00
2022-09-14T09:31:04.889Z,17.00
2022-09-14T09:36:34.972Z,17.10
2022-09-14T09:41:45.086Z,17.30
2022-09-14T09:46:55.518Z,17.40
2022-09-14T09:52:11.609Z,17.50
2022-09-14T09:57:27.302Z,17.90
2022-09-14T10:02:31.944Z,18.30
2022-09-14T10:07:39.373Z,18.70
2022-09-14T10:12:54.225Z,18.80
2022-09-14T10:18:11.563Z,19.00
2022-09-14T10:23:19.861Z,19.10
2022-09-14T10:28:24.127Z,19.00
2022-09-14T10:33:26.974Z,19.00
2022-09-14T10:38:42.619Z,19.10
2022-09-14T10:44:09.706Z,19.30
2022-09-14T10:49:24.135Z,19.90
2022-09-14T10:55:00.697Z,20.30
2022-09-14T11:00:12.477Z,20.20
2022-09-14T11:05:38.535Z,19.90
2022-09-14T11:10:45.315Z,20.20
2022-09-14T11:16:22.325Z,20.10
2022-09-14T11:21:52.472Z,20.00
2022-09-14T11:51:34.583Z,19.90
2022-09-14T14:58:47.615Z,19.90
2022-09-14T15:03:50.324Z,19.70
2022-09-14T15:08:54.902Z,19.40
2022-09-14T15:13:57.637Z,19.30
2022-09-14T15:18:59.982Z,19.20
2022-09-14T15:24:02.735Z,19.00
2022-09-14T15:29:05.682Z,18.80
2022-09-14T15:34:08.117Z,19.00
2022-09-14T15:39:13.685Z,19.20
2022-09-14T15:44:17.197Z,19.20
2022-09-14T15:49:24.581Z,19.00
2022-09-14T15:54:32.494Z,18.80
2022-09-14T15:59:35.095Z,18.90
2022-09-14T16:04:38.571Z,18.70
2022-09-14T16:09:41.855Z,18.80
2022-09-14T16:14:44.289Z,18.60
2022-09-14T16:19:49.210Z,18.50
2022-09-14T16:24:51.941Z,18.40
2022-09-14T16:29:54.321Z,18.20
2022-09-14T16:34:56.979Z,18.10
2022-09-14T16:39:59.840Z,17.90
2022-09-14T16:45:02.352Z,17.90
2022-09-14T16:50:05.488Z,17.70
2022-09-14T16:55:08.157Z,17.70
2022-09-14T17:00:11.086Z,17.60
2022-09-14T17:05:13.983Z,17.40
2022-09-14T17:10:16.448Z,17.20
2022-09-14T17:15:18.845Z,17.00
2022-09-14T17:20:21.255Z,16.90
2022-09-14T17:25:25.253Z,16.80
2022-09-14T17:30:27.618Z,16.90
2022-09-14T17:35:30.127Z,16.80
2022-09-14T17:40:34.002Z,16.70
2022-09-14T17:45:36.714Z,16.70
2022-09-14T17:50:39.640Z,16.70
2022-09-14T17:55:42.583Z,16.50
2022-09-14T18:00:45.991Z,16.30
2022-09-14T18:05:54.749Z,16.30
2022-09-14T18:10:57.258Z,16.30
2022-09-14T18:16:00.073Z,16.20
2022-09-14T18:21:02.736Z,16.20
2022-09-14T18:26:08.166Z,16.10
2022-09-14T18:31:12.815Z,16.10
2022-09-14T18:36:15.337Z,15.90
2022-09-14T18:41:17.953Z,15.90
2022-09-14T18:46:24.493Z,15.80
2022-09-14T18:51:31.430Z,15.70
2022-09-14T18:56:35.121Z,15.70
2022-09-14T19:01:38.058Z,15.60
2022-09-14T19:06:41.758Z,15.70
2022-09-14T19:11:45.121Z,15.70
2022-09-14T19:16:47.757Z,15.60
2022-09-14T19:21:50.153Z,15.40
2022-09-14T19:26:53.138Z,15.40
2022-09-14T19:31:55.926Z,15.30
2022-09-14T19:36:58.320Z,15.30
2022-09-14T19:42:00.703Z,15.40
2022-09-14T19:47:03.449Z,15.40
2022-09-14T19:52:05.838Z,15.40
2022-09-14T19:57:08.305Z,15.40
2022-09-14T20:02:11.628Z,15.40
2022-09-14T20:07:14.123Z,15.30
2022-09-14T20:12:16.456Z,15.30
2022-09-14T20:17:19.115Z,15.10
2022-09-14T20:22:21.457Z,15.10
2022-09-14T20:27:24.196Z,15.20
2022-09-14T20:32:26.560Z,15.00
2022-09-14T20:37:29.160Z,15.20
2022-09-14T20:42:31.601Z,15.10
2022-09-14T20:47:33.995Z,15.00
2022-09-14T20:52:36.940Z,15.00
2022-09-14T20:57:39.314Z,15.00
2022-09-14T21:02:41.849Z,14.90
2022-09-14T21:07:54.115Z,15.00
2022-09-14T21:12:58.608Z,14.80
2022-09-14T21:18:01.783Z,14.70
2022-09-14T21:23:04.854Z,14.70
2022-09-14T21:28:07.572Z,14.90
2022-09-14T21:33:09.923Z,15.00
2022-09-14T21:38:12.286Z,14.80
2022-09-14T21:43:14.863Z,14.80
2022-09-14T21:48:17.575Z,14.80
2022-09-14T21:53:20.146Z,14.80
2022-09-14T21:58:22.636Z,14.70
2022-09-14T22:03:25.632Z,14.70
2022-09-14T22:08:29.852Z,14.70
2022-09-14T22:13:32.670Z,14.70
2022-09-14T22:18:36.878Z,14.80
2022-09-14T22:23:39.249Z,14.60
2022-09-14T22:28:41.824Z,14.70
2022-09-14T22:33:44.922Z,14.60
2022-09-14T22:38:48.199Z,14.50
2022-09-14T22:43:50.586Z,14.60
2022-09-14T22:48:53.659Z,14.70
2022-09-14T22:53:56.774Z,14.60
2022-09-14T22:59:01.591Z,14.40
2022-09-14T23:04:06.924Z,14.50
2022-09-14T23:09:11.772Z,14.40
2022-09-14T23:14:15.577Z,14.40
2022-09-14T23:19:18.870Z,14.60
2022-09-14T23:24:21.356Z,14.20
2022-09-14T23:29:23.941Z,14.40
2022-09-14T23:34:26.384Z,14.40
2022-09-14T23:39:28.962Z,14.30
2022-09-14T23:44:31.562Z,14.10
2022-09-14T23:49:33.941Z,14.20
2022-09-14T23:54:36.290Z,14.20
2022-09-14T23:59:38.728Z,14.10
